createdAt,value
2018-05-16T00:00:32.134Z,84.40
2018-05-16T00:03:00.212Z,84.60
2018-05-16T00:05:28.285Z,84.80
2018-05-16T00:07:57.632Z,85.70
2018-05-16T00:10:25.733Z,85.60
2018-05-16T00:12:53.819Z,85.50
2018-05-16T00:15:21.903Z,85.50
2018-05-16T00:17:49.947Z,84.90
2018-05-16T00:20:18.808Z,84.70
2018-05-16T00:22:46.895Z,85.00
2018-05-16T00:25:14.982Z,85.10
2018-05-16T00:27:43.039Z,84.70
2018-05-16T00:30:11.649Z,85.50
2018-05-16T00:32:41.650Z,85.90
2018-05-16T00:35:09.722Z,85.00
2018-05-16T00:37:37.828Z,85.50
2018-05-16T00:40:05.908Z,85.40
2018-05-16T00:42:33.956Z,85.60
2018-05-16T00:45:02.098Z,85.30
2018-05-16T00:47:30.150Z,85.20
2018-05-16T00:49:58.221Z,84.70
2018-05-16T00:52:26.337Z,84.60
2018-05-16T00:54:54.413Z,84.50
2018-05-16T00:57:22.783Z,84.80
2018-05-16T00:59:50.868Z,85.80
2018-05-16T01:02:18.919Z,85.80
2018-05-16T01:04:46.990Z,85.70
2018-05-16T01:07:15.381Z,85.70
2018-05-16T01:09:43.752Z,85.30
2018-05-16T01:12:11.820Z,85.80
2018-05-16T01:14:40.225Z,86.20
2018-05-16T01:17:08.277Z,85.70
2018-05-16T01:19:37.857Z,85.70
2018-05-16T01:22:05.969Z,85.70
2018-05-16T01:24:34.052Z,85.80
2018-05-16T01:27:02.889Z,84.70
2018-05-16T01:29:31.391Z,84.70
2018-05-16T01:31:59.463Z,85.20
2018-05-16T01:34:27.560Z,85.70
2018-05-16T01:36:55.933Z,85.80
2018-05-16T01:39:24.769Z,85.80
2018-05-16T01:41:53.149Z,85.80
2018-05-16T01:44:21.221Z,86.80
2018-05-16T01:46:49.490Z,87.20
2018-05-16T01:49:17.570Z,87.50
2018-05-16T01:51:46.084Z,87.30
2018-05-16T01:54:14.162Z,87.00
2018-05-16T01:56:42.236Z,87.80
2018-05-16T01:59:10.328Z,87.90
2018-05-16T02:01:39.177Z,88.90
2018-05-16T02:04:07.249Z,88.40
2018-05-16T02:06:35.334Z,88.40
2018-05-16T02:09:03.412Z,88.40
2018-05-16T02:11:31.848Z,88.40
2018-05-16T02:14:00.285Z,88.60
2018-05-16T02:16:29.141Z,90.10
2018-05-16T02:18:57.245Z,89.70
2018-05-16T02:21:25.593Z,89.40
2018-05-16T02:23:53.730Z,90.00
2018-05-16T02:26:22.585Z,90.60
2018-05-16T02:28:50.673Z,90.50
2018-05-16T02:31:19.521Z,91.30
2018-05-16T02:33:47.602Z,91.30
2018-05-16T02:36:15.894Z,91.60
2018-05-16T02:38:43.937Z,91.70
2018-05-16T02:41:12.041Z,91.40
2018-05-16T02:43:40.109Z,91.80
2018-05-16T02:46:08.949Z,92.20
2018-05-16T02:48:37.047Z,92.20
2018-05-16T02:51:05.409Z,92.40
2018-05-16T02:53:33.521Z,92.60
2018-05-16T02:56:01.595Z,92.90
2018-05-16T02:58:31.570Z,93.40
2018-05-16T03:00:59.940Z,93.40
2018-05-16T03:03:28.009Z,93.90
2018-05-16T03:05:56.135Z,94.10
2018-05-16T03:08:24.995Z,94.30
2018-05-16T03:10:53.057Z,94.00
2018-05-16T03:13:21.325Z,94.00
2018-05-16T03:15:49.400Z,94.20
2018-05-16T03:18:17.513Z,94.30
2018-05-16T03:20:46.669Z,94.80
2018-05-16T03:23:14.740Z,94.40
2018-05-16T03:25:42.809Z,94.40
2018-05-16T03:28:10.881Z,94.60
2018-05-16T03:30:38.999Z,94.70
2018-05-16T03:33:07.072Z,94.80
2018-05-16T03:35:36.212Z,94.90
2018-05-16T03:38:04.513Z,94.90
2018-05-16T03:40:32.619Z,95.00
2018-05-16T03:43:01.494Z,95.00
2018-05-16T03:45:29.544Z,95.00
2018-05-16T03:47:57.609Z,95.10
2018-05-16T03:50:25.880Z,95.20
2018-05-16T03:52:53.995Z,95.20
2018-05-16T03:55:22.857Z,95.10
2018-05-16T03:57:51.005Z,95.10
2018-05-16T04:00:19.071Z,95.00
2018-05-16T04:02:47.252Z,95.10
2018-05-16T04:05:15.668Z,95.20
2018-05-16T04:07:43.721Z,95.10
2018-05-16T04:10:11.781Z,94.90
2018-05-16T04:12:40.160Z,95.10
2018-05-16T04:15:08.449Z,95.20
2018-05-16T04:17:36.548Z,95.40
2018-05-16T04:20:05.128Z,95.40
2018-05-16T04:22:33.835Z,95.40
2018-05-16T04:25:02.682Z,95.40
2018-05-16T04:27:30.741Z,95.40
2018-05-16T04:29:58.825Z,95.30
2018-05-16T04:32:27.509Z,95.40
2018-05-16T04:34:55.622Z,95.30
2018-05-16T04:37:24.449Z,95.40
2018-05-16T04:39:52.849Z,95.40
2018-05-16T04:42:20.925Z,95.60
2018-05-16T04:44:48.981Z,94.90
2018-05-16T04:47:17.460Z,95.40
2018-05-16T04:49:45.560Z,95.10
2018-05-16T04:52:14.426Z,95.20
2018-05-16T04:54:42.813Z,95.40
2018-05-16T04:57:10.876Z,95.30
2018-05-16T04:59:38.973Z,95.00
2018-05-16T05:02:08.865Z,95.10
2018-05-16T05:04:36.936Z,95.10
2018-05-16T05:07:05.001Z,95.20
2018-05-16T05:09:33.388Z,95.20
2018-05-16T05:12:01.453Z,95.30
2018-05-16T05:14:29.532Z,95.20
2018-05-16T05:16:58.013Z,95.20
2018-05-16T05:19:26.089Z,95.20
2018-05-16T05:21:54.145Z,95.10
2018-05-16T05:24:23.448Z,95.00
2018-05-16T05:26:52.277Z,94.90
2018-05-16T05:29:21.772Z,95.00
2018-05-16T05:31:50.536Z,95.00
2018-05-16T05:34:19.653Z,95.10
2018-05-16T05:36:48.615Z,95.00
2018-05-16T05:39:17.641Z,95.10
2018-05-16T05:41:46.223Z,95.10
2018-05-16T05:44:15.085Z,95.10
2018-05-16T05:46:44.733Z,95.10
2018-05-16T05:49:14.428Z,95.10
2018-05-16T05:51:43.137Z,94.80
2018-05-16T05:54:12.848Z,94.80
2018-05-16T05:56:42.236Z,94.90
2018-05-16T05:59:10.993Z,94.90
2018-05-16T06:01:40.090Z,95.00
2018-05-16T06:04:09.002Z,94.90
2018-05-16T06:06:37.913Z,94.90
2018-05-16T06:09:05.999Z,94.80
2018-05-16T06:11:35.586Z,94.90
2018-05-16T06:14:04.170Z,94.90
2018-05-16T06:16:33.948Z,94.60
2018-05-16T06:19:02.053Z,94.60
2018-05-16T06:21:31.645Z,94.60
2018-05-16T06:23:59.720Z,94.50
2018-05-16T06:26:27.784Z,94.50
2018-05-16T06:28:55.862Z,94.50
2018-05-16T06:31:24.334Z,94.60
2018-05-16T06:33:53.015Z,94.40
2018-05-16T06:36:22.466Z,94.40
2018-05-16T06:38:51.233Z,94.20
2018-05-16T06:41:21.355Z,93.40
2018-05-16T06:43:50.539Z,93.40
2018-05-16T06:46:19.661Z,93.20
2018-05-16T06:48:50.073Z,92.80
2018-05-16T06:51:19.782Z,92.50
2018-05-16T06:53:49.142Z,92.20
2018-05-16T06:56:17.224Z,92.20
2018-05-16T06:58:46.348Z,92.60
2018-05-16T07:01:14.425Z,92.70
2018-05-16T07:03:43.273Z,92.60
2018-05-16T07:06:11.902Z,92.60
2018-05-16T07:08:41.585Z,92.40
2018-05-16T07:11:10.258Z,92.40
2018-05-16T07:13:38.406Z,92.10
2018-05-16T07:16:07.994Z,90.30
2018-05-16T07:18:36.966Z,90.30
2018-05-16T07:21:06.623Z,91.30
2018-05-16T07:23:34.691Z,91.30
2018-05-16T07:26:02.826Z,91.00
2018-05-16T07:28:32.289Z,92.30
2018-05-16T07:31:01.421Z,92.30
2018-05-16T07:33:30.181Z,91.10
2018-05-16T07:35:59.007Z,92.10
2018-05-16T07:38:29.218Z,91.20
2018-05-16T07:40:58.885Z,88.50
2018-05-16T07:43:27.609Z,88.30
2018-05-16T07:45:56.661Z,89.70
2018-05-16T07:48:25.579Z,86.40
2018-05-16T07:50:54.460Z,87.10
2018-05-16T07:53:23.287Z,88.10
2018-05-16T07:55:53.177Z,85.70
2018-05-16T07:58:21.980Z,86.20
2018-05-16T08:00:50.027Z,86.20
2018-05-16T08:03:18.659Z,86.20
2018-05-16T08:05:48.450Z,86.50
2018-05-16T08:08:17.497Z,86.40
2018-05-16T08:10:49.171Z,85.00
2018-05-16T08:13:18.168Z,84.80
2018-05-16T08:15:47.584Z,90.00
2018-05-16T08:18:16.332Z,90.00
2018-05-16T08:20:44.397Z,89.40
2018-05-16T08:23:13.002Z,88.40
2018-05-16T08:25:41.804Z,89.40
2018-05-16T08:28:11.666Z,72.80
2018-05-16T08:30:40.731Z,72.20
2018-05-16T08:33:09.544Z,69.10
2018-05-16T08:35:38.353Z,68.10
2018-05-16T08:38:08.102Z,66.90
2018-05-16T08:40:37.444Z,70.00
2018-05-16T08:43:06.512Z,67.80
2018-05-16T08:45:35.399Z,70.70
2018-05-16T08:48:05.062Z,79.00
2018-05-16T08:50:34.099Z,78.90
2018-05-16T08:53:03.842Z,80.40
2018-05-16T08:55:32.497Z,80.40
2018-05-16T08:58:02.287Z,78.40
2018-05-16T09:00:31.246Z,78.50
2018-05-16T09:02:59.353Z,79.00
2018-05-16T09:05:28.838Z,82.90
2018-05-16T09:07:56.914Z,82.90
2018-05-16T09:10:25.934Z,84.40
2018-05-16T09:12:55.242Z,79.90
2018-05-16T09:15:24.118Z,80.10
2018-05-16T09:17:52.265Z,69.40
2018-05-16T09:20:20.973Z,65.40
2018-05-16T09:22:49.588Z,63.00
2018-05-16T09:25:18.597Z,67.70
2018-05-16T09:27:47.949Z,72.60
2018-05-16T09:30:16.815Z,71.20
2018-05-16T09:32:45.789Z,76.30
2018-05-16T09:35:14.430Z,77.70
2018-05-16T09:37:44.476Z,78.30
2018-05-16T09:40:13.113Z,78.20
2018-05-16T09:42:41.932Z,79.10
2018-05-16T09:45:12.359Z,74.20
2018-05-16T09:47:40.561Z,74.20
2018-05-16T09:50:10.097Z,68.90
2018-05-16T09:52:38.208Z,72.40
2018-05-16T09:55:07.454Z,64.80
2018-05-16T09:57:36.476Z,66.30
2018-05-16T10:00:05.898Z,62.40
2018-05-16T10:02:34.625Z,61.50
2018-05-16T10:05:02.757Z,59.40
2018-05-16T10:07:32.828Z,64.10
2018-05-16T10:10:00.933Z,64.10
2018-05-16T10:12:29.808Z,68.60
2018-05-16T10:28:00.453Z,73.80
2018-05-16T10:30:30.563Z,70.80
2018-05-16T10:32:59.511Z,70.80
2018-05-16T10:35:28.237Z,64.60
2018-05-16T10:37:56.373Z,65.90
2018-05-16T10:40:26.029Z,65.40
2018-05-16T10:42:55.887Z,61.40
2018-05-16T10:45:25.009Z,61.10
2018-05-16T10:47:53.934Z,62.60
2018-05-16T10:50:23.887Z,63.40
2018-05-16T10:52:52.514Z,63.40
2018-05-16T10:55:20.591Z,66.50
2018-05-16T10:57:48.648Z,63.50
2018-05-16T11:00:18.681Z,65.80
2018-05-16T11:02:47.441Z,64.60
2018-05-16T11:05:16.331Z,63.60
2018-05-16T11:07:45.128Z,58.80
2018-05-16T11:10:14.253Z,58.80
2018-05-16T11:12:44.141Z,58.00
2018-05-16T11:15:13.206Z,57.80
2018-05-16T11:17:41.285Z,54.70
2018-05-16T11:20:09.397Z,55.20
2018-05-16T11:22:38.341Z,54.40
2018-05-16T11:25:07.414Z,52.40
2018-05-16T11:27:36.265Z,50.20
2018-05-16T11:30:05.577Z,50.10
2018-05-16T11:32:35.960Z,49.50
2018-05-16T11:35:04.868Z,49.50
2018-05-16T11:37:33.459Z,51.20
2018-05-16T11:40:02.247Z,53.50
2018-05-16T11:42:31.133Z,54.20
2018-05-16T11:44:59.125Z,54.00
2018-05-16T11:47:27.213Z,53.00
2018-05-16T11:49:55.667Z,53.20
2018-05-16T11:52:23.745Z,54.70
2018-05-16T11:54:53.341Z,55.50
2018-05-16T11:57:22.051Z,55.30
2018-05-16T11:59:51.813Z,56.30
2018-05-16T12:02:20.616Z,56.30
2018-05-16T12:04:49.423Z,54.20
2018-05-16T12:07:19.013Z,47.60
2018-05-16T12:09:47.826Z,47.50
2018-05-16T12:12:16.617Z,50.40
2018-05-16T12:14:44.716Z,46.70
2018-05-16T12:17:14.422Z,45.10
2018-05-16T12:19:43.820Z,42.60
2018-05-16T12:22:12.595Z,42.70
2018-05-16T12:24:41.442Z,48.80
2018-05-16T12:27:10.169Z,48.60
2018-05-16T12:29:40.947Z,50.30
2018-05-16T12:32:09.869Z,50.10
2018-05-16T12:34:38.962Z,50.30
2018-05-16T12:37:08.466Z,43.80
2018-05-16T12:39:37.085Z,46.20
2018-05-16T12:42:06.041Z,46.90
2018-05-16T12:44:34.916Z,49.70
2018-05-16T12:47:03.038Z,43.60
2018-05-16T12:49:31.911Z,41.60
2018-05-16T12:52:00.719Z,41.50
2018-05-16T12:54:30.274Z,45.60
2018-05-16T12:56:58.879Z,45.50
2018-05-16T12:59:26.949Z,41.50
2018-05-16T13:01:56.729Z,44.90
2018-05-16T13:04:25.347Z,44.60
2018-05-16T13:06:53.419Z,47.00
2018-05-16T13:09:23.112Z,47.50
2018-05-16T13:11:51.801Z,47.40
2018-05-16T13:14:20.427Z,45.90
2018-05-16T13:16:50.541Z,46.30
2018-05-16T13:19:20.228Z,43.80
2018-05-16T13:21:48.885Z,43.70
2018-05-16T13:24:17.697Z,42.70
2018-05-16T13:26:47.356Z,42.60
2018-05-16T13:29:16.328Z,44.70
2018-05-16T13:31:45.930Z,44.80
2018-05-16T13:34:15.739Z,46.80
2018-05-16T13:36:44.585Z,50.00
2018-05-16T13:39:13.466Z,50.00
2018-05-16T13:41:42.861Z,44.90
2018-05-16T13:44:11.843Z,45.10
2018-05-16T13:46:40.707Z,45.60
2018-05-16T13:49:09.457Z,43.20
2018-05-16T13:51:38.588Z,39.20
2018-05-16T13:54:07.421Z,38.90
2018-05-16T13:56:35.551Z,40.50
2018-05-16T13:59:05.021Z,38.40
2018-05-16T14:01:33.178Z,38.30
2018-05-16T14:04:01.913Z,40.30
2018-05-16T14:06:30.703Z,41.20
2018-05-16T14:08:59.390Z,43.60
2018-05-16T14:11:28.248Z,47.10
2018-05-16T14:13:56.325Z,47.00
2018-05-16T14:16:25.341Z,47.80
2018-05-16T14:18:54.016Z,47.20
2018-05-16T14:21:23.023Z,43.20
2018-05-16T14:23:52.515Z,39.90
2018-05-16T14:26:22.021Z,39.90
2018-05-16T14:28:50.786Z,39.10
2018-05-16T14:31:18.902Z,41.60
2018-05-16T14:33:47.769Z,42.50
2018-05-16T14:36:16.139Z,42.40
2018-05-16T14:38:44.241Z,42.70
2018-05-16T14:41:13.441Z,42.60
2018-05-16T14:43:43.050Z,45.10
2018-05-16T14:46:11.879Z,44.30
2018-05-16T14:48:39.997Z,44.30
2018-05-16T14:51:09.613Z,42.70
2018-05-16T14:53:38.501Z,45.80
2018-05-16T14:56:08.113Z,45.00
2018-05-16T14:58:37.917Z,44.70
2018-05-16T15:01:05.965Z,44.80
2018-05-16T15:03:34.061Z,45.50
2018-05-16T15:06:04.240Z,47.00
2018-05-16T15:08:32.926Z,46.90
2018-05-16T15:11:02.881Z,47.50
2018-05-16T15:13:31.758Z,46.90
2018-05-16T15:16:01.161Z,46.50
2018-05-16T15:18:29.741Z,46.60
2018-05-16T15:20:58.433Z,46.70
2018-05-16T15:23:27.517Z,46.00
2018-05-16T15:25:56.385Z,47.80
2018-05-16T15:28:25.428Z,47.80
2018-05-16T15:30:54.749Z,47.40
2018-05-16T15:33:24.211Z,47.40
2018-05-16T15:35:52.896Z,47.20
2018-05-16T15:38:21.850Z,48.40
2018-05-16T15:40:50.497Z,49.80
2018-05-16T15:43:19.836Z,51.00
2018-05-16T15:45:47.940Z,51.10
2018-05-16T15:48:16.009Z,50.60
2018-05-16T15:50:44.404Z,51.10
2018-05-16T15:53:13.265Z,51.20
2018-05-16T15:55:42.197Z,52.40
2018-05-16T15:58:11.164Z,52.30
2018-05-16T16:00:39.236Z,51.40
2018-05-16T16:03:07.309Z,52.00
2018-05-16T16:05:35.696Z,52.30
2018-05-16T16:08:04.661Z,51.40
2018-05-16T16:10:32.658Z,53.10
2018-05-16T16:13:00.745Z,53.10
2018-05-16T16:15:29.616Z,53.10
2018-05-16T16:17:58.672Z,53.00
2018-05-16T16:20:26.784Z,53.60
2018-05-16T16:22:54.857Z,53.50
2018-05-16T16:25:25.109Z,54.50
2018-05-16T16:27:53.981Z,54.50
2018-05-16T16:30:22.050Z,54.50
2018-05-16T16:32:50.741Z,55.20
2018-05-16T16:35:18.804Z,55.80
2018-05-16T16:37:46.889Z,56.20
2018-05-16T16:40:15.937Z,56.90
2018-05-16T16:42:44.665Z,57.20
2018-05-16T16:45:13.621Z,57.20
2018-05-16T16:47:41.731Z,57.70
2018-05-16T16:50:09.853Z,58.60
2018-05-16T16:52:37.901Z,58.20
2018-05-16T16:55:05.958Z,57.60
2018-05-16T16:57:35.865Z,59.50
2018-05-16T17:00:04.746Z,60.00
2018-05-16T17:02:32.821Z,60.00
2018-05-16T17:05:01.158Z,59.60
2018-05-16T17:07:29.232Z,60.10
2018-05-16T17:09:57.325Z,60.30
2018-05-16T17:12:25.724Z,60.30
2018-05-16T17:14:53.761Z,60.50
2018-05-16T17:17:21.850Z,60.70
2018-05-16T17:19:50.841Z,61.30
2018-05-16T17:22:20.949Z,61.20
2018-05-16T17:24:49.005Z,61.90
2018-05-16T17:27:17.929Z,61.90
2018-05-16T17:29:46.036Z,62.90
2018-05-16T17:32:14.916Z,63.80
2018-05-16T17:34:43.763Z,63.90
2018-05-16T17:37:11.850Z,63.90
2018-05-16T17:39:39.921Z,64.50
2018-05-16T17:42:08.020Z,65.40
2018-05-16T17:44:36.873Z,64.70
2018-05-16T17:47:04.969Z,64.70
2018-05-16T17:49:33.211Z,66.10
2018-05-16T17:52:01.703Z,65.80
2018-05-16T17:54:31.462Z,66.30
2018-05-16T17:57:01.137Z,66.60
2018-05-16T17:59:29.192Z,66.60
2018-05-16T18:01:58.113Z,66.70
2018-05-16T18:04:26.962Z,67.40
2018-05-16T18:06:55.969Z,67.40
2018-05-16T18:09:24.033Z,67.80
2018-05-16T18:11:53.030Z,67.80
2018-05-16T18:14:21.814Z,67.80
2018-05-16T18:16:50.680Z,67.70
2018-05-16T18:19:19.505Z,69.30
2018-05-16T18:21:47.593Z,69.10
2018-05-16T18:24:16.470Z,70.50
2018-05-16T18:26:44.840Z,69.80
2018-05-16T18:29:12.923Z,70.90
2018-05-16T18:31:40.984Z,70.20
2018-05-16T18:34:09.090Z,71.80
2018-05-16T18:36:37.194Z,72.10
2018-05-16T18:39:05.265Z,72.60
2018-05-16T18:41:33.909Z,73.50
2018-05-16T18:44:02.789Z,73.80
2018-05-16T18:46:31.764Z,73.60
2018-05-16T18:49:00.351Z,73.70
2018-05-16T18:51:28.436Z,73.50
2018-05-16T18:53:56.521Z,73.70
2018-05-16T18:56:25.413Z,74.70
2018-05-16T18:58:55.216Z,75.40
2018-05-16T19:01:24.070Z,76.80
2018-05-16T19:03:52.158Z,76.30
2018-05-16T19:06:20.246Z,77.00
2018-05-16T19:08:49.103Z,78.00
2018-05-16T19:11:17.113Z,78.00
2018-05-16T19:13:46.493Z,78.70
2018-05-16T19:16:14.561Z,78.70
2018-05-16T19:18:44.505Z,79.50
2018-05-16T19:21:13.395Z,80.00
2018-05-16T19:23:42.293Z,80.60
2018-05-16T19:26:11.173Z,81.80
2018-05-16T19:28:39.226Z,81.70
2018-05-16T19:31:07.282Z,82.20
2018-05-16T19:33:35.373Z,82.60
2018-05-16T19:36:05.157Z,83.10
2018-05-16T19:38:33.268Z,83.90
2018-05-16T19:41:01.388Z,84.30
2018-05-16T19:43:30.224Z,84.90
2018-05-16T19:45:58.301Z,85.10
2018-05-16T19:48:26.381Z,85.20
2018-05-16T19:50:55.473Z,85.50
2018-05-16T19:53:24.320Z,86.50
2018-05-16T19:55:52.941Z,85.70
2018-05-16T19:58:21.033Z,86.10
2018-05-16T20:00:49.868Z,86.80
2018-05-16T20:03:18.327Z,86.80
2018-05-16T20:05:46.359Z,87.20
2018-05-16T20:08:15.188Z,87.20
2018-05-16T20:10:43.622Z,87.20
2018-05-16T20:13:12.410Z,88.00
2018-05-16T20:15:40.457Z,88.20
2018-05-16T20:18:08.561Z,88.30
2018-05-16T20:20:38.249Z,88.10
2018-05-16T20:23:06.308Z,88.00
2018-05-16T20:25:34.385Z,88.00
2018-05-16T20:28:02.481Z,88.70
2018-05-16T20:30:30.537Z,88.20
2018-05-16T20:32:58.598Z,88.20
2018-05-16T20:35:26.977Z,88.30
2018-05-16T20:37:55.057Z,88.50
2018-05-16T20:40:23.131Z,88.30
2018-05-16T20:42:51.608Z,88.50
2018-05-16T20:45:19.717Z,89.10
2018-05-16T20:47:48.543Z,89.30
2018-05-16T20:50:16.952Z,89.20
2018-05-16T20:52:45.038Z,89.40
2018-05-16T20:55:13.115Z,89.40
2018-05-16T20:57:41.965Z,89.50
2018-05-16T21:00:10.069Z,89.40
2018-05-16T21:02:38.150Z,89.40
2018-05-16T21:05:07.461Z,89.90
2018-05-16T21:07:35.521Z,89.80
2018-05-16T21:10:04.477Z,89.80
2018-05-16T21:12:32.569Z,89.80
2018-05-16T21:15:00.616Z,90.00
2018-05-16T21:17:28.717Z,90.20
2018-05-16T21:19:57.112Z,89.80
2018-05-16T21:22:25.397Z,90.10
2018-05-16T21:24:54.533Z,90.20
2018-05-16T21:27:22.612Z,90.20
2018-05-16T21:29:50.703Z,90.40
2018-05-16T21:32:19.957Z,90.70
2018-05-16T21:34:48.056Z,90.80
2018-05-16T21:37:16.106Z,91.00
2018-05-16T21:39:44.440Z,91.20
2018-05-16T21:42:13.293Z,91.20
2018-05-16T21:44:41.369Z,91.20
2018-05-16T21:47:09.832Z,91.30
2018-05-16T21:49:38.006Z,91.40
2018-05-16T21:52:06.062Z,91.40
2018-05-16T21:54:35.040Z,91.40
2018-05-16T21:57:03.860Z,91.50
2018-05-16T21:59:31.945Z,91.50
2018-05-16T22:02:00.337Z,91.60
2018-05-16T22:04:28.388Z,91.70
2018-05-16T22:06:56.460Z,91.70
2018-05-16T22:09:24.837Z,91.70
2018-05-16T22:11:52.913Z,91.70
2018-05-16T22:14:21.293Z,91.60
2018-05-16T22:16:49.673Z,91.60
2018-05-16T22:19:17.736Z,91.60
2018-05-16T22:21:45.816Z,91.70
2018-05-16T22:24:14.197Z,91.80
2018-05-16T22:26:42.369Z,91.90
2018-05-16T22:29:10.425Z,92.10
2018-05-16T22:31:38.832Z,92.20
2018-05-16T22:34:06.917Z,92.40
2018-05-16T22:36:34.964Z,92.20
2018-05-16T22:39:04.072Z,92.10
2018-05-16T22:41:32.158Z,92.20
2018-05-16T22:44:00.201Z,92.30
2018-05-16T22:46:28.273Z,92.70
2018-05-16T22:48:56.357Z,92.40
2018-05-16T22:51:24.421Z,92.40
2018-05-16T22:53:52.493Z,92.40
2018-05-16T22:56:20.568Z,92.60
2018-05-16T22:58:48.645Z,92.70
2018-05-16T23:01:16.737Z,92.70
2018-05-16T23:03:45.986Z,92.90
2018-05-16T23:06:14.072Z,92.80
2018-05-16T23:08:42.169Z,93.00
2018-05-16T23:11:11.065Z,92.70
2018-05-16T23:13:40.732Z,92.70
2018-05-16T23:16:09.211Z,92.70
2018-05-16T23:18:38.037Z,92.70
2018-05-16T23:21:06.121Z,92.70
2018-05-16T23:23:35.317Z,92.70
2018-05-16T23:26:04.153Z,92.40
2018-05-16T23:28:32.424Z,92.40
2018-05-16T23:31:00.562Z,92.40
2018-05-16T23:33:29.416Z,92.50
2018-05-16T23:35:57.514Z,92.50
2018-05-16T23:38:26.047Z,92.60
2018-05-16T23:40:54.115Z,92.60
2018-05-16T23:43:22.213Z,92.40
2018-05-16T23:45:50.593Z,92.40
2018-05-16T23:48:18.694Z,92.20
2018-05-16T23:50:47.577Z,92.00
2018-05-16T23:53:16.465Z,92.00
2018-05-16T23:55:45.309Z,92.20
2018-05-16T23:58:13.433Z,92.20
